Time;durP1;ratioP1;P1;durP2;ratioP2;P2;SDS_P1;SDS_P2;PMS_P1;PMS_P2;Temp;Humidity;BMP_temperature;BMP_pressure;BME280_temperature;BME280_humidity;BME280_pressure;Samples;Min_cycle;Max_cycle;Signal;HPM_P1;HPM_P2
2021/06/18 00:00:52;;;;;;;11.35;5.75;;;26.40;98.20;;;;;;6757410;88;20232;-79
2021/06/18 00:10:52;;;;;;;6.45;3.40;;;26.20;99.90;;;;;;6755539;88;20308;-78
2021/06/18 00:20:53;;;;;;;7.82;3.50;;;25.80;99.80;;;;;;6754934;88;20235;-78
2021/06/18 00:30:54;;;;;;;6.90;3.47;;;25.70;99.90;;;;;;6754755;88;20205;-79
2021/06/18 00:40:54;;;;;;;8.32;4.03;;;25.70;99.90;;;;;;6760712;88;20309;-77
2021/06/18 00:50:55;;;;;;;7.33;3.73;;;25.80;99.90;;;;;;6753752;88;20216;-79
2021/06/18 01:00:56;;;;;;;8.38;4.80;;;25.80;99.90;;;;;;6749372;88;20545;-78
2021/06/18 01:11:25;;;;;;;8.47;4.90;;;25.60;99.90;;;;;;6753222;88;20326;-79
2021/06/18 01:21:33;;;;;;;8.25;3.60;;;25.30;99.90;;;;;;6765622;87;20368;-78
2021/06/18 01:31:41;;;;;;;9.30;3.90;;;24.90;99.90;;;;;;6762878;77;20198;-80
2021/06/18 01:41:43;;;;;;;10.68;4.05;;;24.80;99.90;;;;;;6740271;88;20228;-80
2021/06/18 01:51:45;;;;;;;7.50;4.10;;;24.60;99.90;;;;;;6721769;88;20312;-80
2021/06/18 02:01:49;;;;;;;9.70;4.78;;;24.50;99.90;;;;;;6724062;88;20236;-80
2021/06/18 02:11:49;;;;;;;9.15;4.80;;;24.60;99.90;;;;;;6721746;88;20185;-81
2021/06/18 02:21:53;;;;;;;12.75;4.50;;;24.30;99.90;;;;;;6720765;88;20226;-80
2021/06/18 02:31:56;;;;;;;7.03;4.18;;;24.30;99.90;;;;;;6726014;88;20222;-81
2021/06/18 02:41:57;;;;;;;10.52;4.35;;;24.00;99.90;;;;;;6726196;88;20791;-80
2021/06/18 02:52:07;;;;;;;8.93;4.53;;;23.70;99.90;;;;;;6721789;88;20217;-80
2021/06/18 03:02:14;;;;;;;10.43;4.70;;;23.70;99.90;;;;;;6721535;88;20190;-81
2021/06/18 03:12:17;;;;;;;8.88;4.57;;;23.60;99.90;;;;;;6724206;88;20218;-81
2021/06/18 03:22:21;;;;;;;6.60;4.53;;;23.60;99.90;;;;;;6734953;88;20609;-80
2021/06/18 03:32:23;;;;;;;8.30;4.50;;;23.70;99.90;;;;;;6735875;88;20525;-80
2021/06/18 03:42:24;;;;;;;11.05;4.65;;;23.70;99.90;;;;;;6739735;88;20689;-80
2021/06/18 03:52:25;;;;;;;9.07;4.85;;;23.40;99.90;;;;;;6739343;88;20179;-80
2021/06/18 04:02:26;;;;;;;8.98;5.10;;;23.40;99.90;;;;;;6743558;88;20197;-80
2021/06/18 04:12:27;;;;;;;9.57;5.22;;;23.60;99.90;;;;;;6723646;88;20196;-80
2021/06/18 04:22:31;;;;;;;8.63;5.50;;;23.40;99.90;;;;;;6722842;88;20669;-80
2021/06/18 04:32:31;;;;;;;7.67;5.30;;;23.30;99.90;;;;;;6736681;88;20679;-80
2021/06/18 04:42:32;;;;;;;8.45;5.57;;;23.10;99.90;;;;;;6747017;88;20293;-78
2021/06/18 04:52:33;;;;;;;9.73;5.70;;;23.20;99.90;;;;;;6748254;88;20208;-80
2021/06/18 05:02:33;;;;;;;7.70;5.30;;;23.30;99.90;;;;;;6740638;88;20597;-79
2021/06/18 05:12:34;;;;;;;12.80;6.28;;;23.60;99.90;;;;;;6717804;88;20218;-78
2021/06/18 05:22:35;;;;;;;11.25;6.00;;;23.70;99.90;;;;;;6724375;88;20648;-79
2021/06/18 05:32:35;;;;;;;14.20;5.95;;;24.00;99.90;;;;;;6729923;88;20781;-78
2021/06/18 05:42:36;;;;;;;9.45;6.20;;;24.40;99.90;;;;;;6723309;88;20836;-78
2021/06/18 05:52:37;;;;;;;10.77;6.07;;;24.70;99.90;;;;;;6728771;88;20188;-78
2021/06/18 06:02:37;;;;;;;12.43;7.12;;;24.90;99.90;;;;;;6738261;88;20244;-78
2021/06/18 06:12:38;;;;;;;12.02;6.53;;;25.40;99.90;;;;;;6744947;88;20976;-77
2021/06/18 06:22:38;;;;;;;11.32;6.37;;;26.20;99.90;;;;;;6726866;88;20585;-78
2021/06/18 06:32:40;;;;;;;13.10;6.93;;;27.00;99.90;;;;;;6723294;88;20180;-79
2021/06/18 06:42:40;;;;;;;12.35;7.22;;;28.10;99.90;;;;;;6725507;88;20200;-83
2021/06/18 06:52:41;;;;;;;11.18;6.60;;;28.10;99.90;;;;;;6719569;88;20309;-80
2021/06/18 07:02:43;;;;;;;15.57;7.00;;;29.80;99.90;;;;;;6715890;88;20306;-77
2021/06/18 07:12:43;;;;;;;13.97;5.30;;;30.10;99.90;;;;;;6727716;88;20744;-80
2021/06/18 07:22:44;;;;;;;8.80;5.65;;;30.20;99.90;;;;;;6740354;88;20267;-80
2021/06/18 07:32:44;;;;;;;9.57;5.03;;;30.40;99.60;;;;;;6733215;88;20224;-80
2021/06/18 07:42:45;;;;;;;9.05;4.78;;;30.20;99.50;;;;;;6738868;88;20209;-80
2021/06/18 07:52:47;;;;;;;15.73;5.40;;;30.20;98.40;;;;;;6727704;88;20263;-80
2021/06/18 08:02:47;;;;;;;9.97;5.63;;;30.20;99.10;;;;;;6731158;88;20226;-79
2021/06/18 08:12:48;;;;;;;8.48;5.10;;;29.60;99.30;;;;;;6733582;88;20176;-79
2021/06/18 08:22:49;;;;;;;14.80;5.53;;;29.20;99.90;;;;;;6738130;88;20674;-79
2021/06/18 08:32:51;;;;;;;8.40;5.20;;;28.90;99.90;;;;;;6737052;88;20216;-81
2021/06/18 08:42:52;;;;;;;;;;;28.60;99.90;;;;;;6741296;88;20546;-80
2021/06/18 08:53:02;;;;;;;8.25;4.95;;;28.50;99.90;;;;;;6737427;88;20060;-80
2021/06/18 09:03:35;;;;;;;10.55;4.60;;;28.40;99.90;;;;;;6721234;88;20351;-80
2021/06/18 09:13:36;;;;;;;;;;;29.10;99.90;;;;;;6725624;88;20188;-80
2021/06/18 09:23:46;;;;;;;10.60;4.77;;;29.90;99.90;;;;;;6723512;88;20115;-79
2021/06/18 09:33:47;;;;;;;9.30;4.03;;;29.60;99.90;;;;;;6724310;88;20495;-79
2021/06/18 09:43:47;;;;;;;9.80;4.37;;;29.90;97.70;;;;;;6720116;88;20593;-79
2021/06/18 09:53:48;;;;;;;12.07;5.12;;;30.90;98.10;;;;;;6721810;88;20247;-80
2021/06/18 10:04:07;;;;;;;10.98;5.32;;;31.50;97.70;;;;;;6721574;88;20203;-79
2021/06/18 10:14:08;;;;;;;10.93;5.20;;;32.10;97.90;;;;;;6724784;88;20201;-80
2021/06/18 10:24:10;;;;;;;14.13;5.07;;;32.50;96.90;;;;;;6719207;88;20205;-79
2021/06/18 10:34:16;;;;;;;7.93;4.40;;;32.60;95.70;;;;;;6716757;88;20369;-80
2021/06/18 10:44:39;;;;;;;12.35;3.70;;;34.30;94.00;;;;;;6737254;88;20214;-79
2021/06/18 10:54:48;;;;;;;12.15;4.10;;;34.70;89.30;;;;;;6719486;88;20196;-79
2021/06/18 11:04:54;;;;;;;8.25;4.20;;;34.90;90.00;;;;;;6722592;88;20176;-79
2021/06/18 11:15:13;;;;;;;6.68;3.65;;;34.40;91.10;;;;;;6723625;88;20649;-78
2021/06/18 11:25:36;;;;;;;11.18;4.30;;;34.60;91.30;;;;;;6722204;88;20253;-78
2021/06/18 11:35:37;;;;;;;8.23;3.85;;;36.90;88.20;;;;;;6717471;88;20640;-79
2021/06/18 11:45:44;;;;;;;9.57;3.30;;;36.00;83.50;;;;;;6734036;88;20776;-79
2021/06/18 11:55:55;;;;;;;9.75;3.83;;;35.70;84.00;;;;;;6741745;88;20188;-80
2021/06/18 12:05:55;;;;;;;8.98;3.85;;;34.80;86.10;;;;;;6741823;88;20208;-79
2021/06/18 12:16:07;;;;;;;9.65;3.87;;;35.60;83.60;;;;;;6741456;88;20222;-79
2021/06/18 12:26:07;;;;;;;9.55;3.72;;;36.50;82.80;;;;;;6723771;88;20631;-79
2021/06/18 12:36:19;;;;;;;8.75;3.30;;;37.70;81.40;;;;;;6722802;88;20214;-79
2021/06/18 12:46:20;;;;;;;8.52;3.33;;;37.00;78.60;;;;;;6721807;88;20246;-79
2021/06/18 12:56:22;;;;;;;7.30;3.28;;;35.80;78.80;;;;;;6721422;88;20215;-79
2021/06/18 13:06:25;;;;;;;9.25;2.95;;;36.30;75.80;;;;;;6721079;88;20609;-78
2021/06/18 13:16:25;;;;;;;7.30;3.20;;;37.80;72.60;;;;;;6734687;88;20291;-79
2021/06/18 13:26:33;;;;;;;8.48;2.67;;;36.40;72.90;;;;;;6724963;88;20185;-79
2021/06/18 13:36:37;;;;;;;6.43;2.90;;;36.80;70.70;;;;;;6724037;88;20758;-79
2021/06/18 13:46:39;;;;;;;8.23;2.50;;;36.80;69.80;;;;;;6732901;88;20245;-79
2021/06/18 13:56:40;;;;;;;6.53;2.70;;;36.10;66.90;;;;;;6738482;88;20246;-78
2021/06/18 14:06:40;;;;;;;9.23;2.90;;;34.90;71.90;;;;;;6734038;88;20218;-79
2021/06/18 14:16:43;;;;;;;;;;;34.00;72.60;;;;;;6722569;88;20177;-78
2021/06/18 14:26:43;;;;;;;9.83;2.67;;;33.50;71.90;;;;;;6739796;88;20539;-79
2021/06/18 14:36:44;;;;;;;8.25;2.75;;;33.60;72.20;;;;;;6735950;88;20687;-79
2021/06/18 14:46:44;;;;;;;12.45;3.35;;;35.00;69.60;;;;;;6727753;88;20319;-78
2021/06/18 14:56:45;;;;;;;13.73;3.72;;;34.90;71.20;;;;;;6731047;88;20194;-79
2021/06/18 15:06:45;;;;;;;9.70;3.42;;;34.90;71.50;;;;;;6728362;88;20605;-79
2021/06/18 15:16:46;;;;;;;11.60;4.03;;;35.00;73.50;;;;;;6737255;88;20226;-81
2021/06/18 15:26:47;;;;;;;7.50;3.63;;;35.60;73.00;;;;;;6724064;88;20203;-80
2021/06/18 15:36:47;;;;;;;8.80;3.30;;;34.10;72.70;;;;;;6723162;88;20544;-79
2021/06/18 15:46:48;;;;;;;;;;;34.00;73.90;;;;;;6724762;88;20200;-79
2021/06/18 15:56:50;;;;;;;12.13;3.17;;;34.00;74.00;;;;;;6721453;88;20068;-80
2021/06/18 16:06:52;;;;;;;6.70;3.30;;;35.10;72.00;;;;;;6717708;88;20211;-80
2021/06/18 16:16:52;;;;;;;10.43;3.40;;;35.50;71.70;;;;;;6734403;77;20238;-77
2021/06/18 16:26:53;;;;;;;7.03;3.60;;;35.40;72.60;;;;;;6740230;88;20239;-76
2021/06/18 16:36:54;;;;;;;8.47;3.50;;;34.50;73.90;;;;;;6735255;88;20190;-77
2021/06/18 16:46:55;;;;;;;10.52;4.00;;;34.20;75.70;;;;;;6740468;88;20197;-78
2021/06/18 16:56:57;;;;;;;;;;;34.20;76.40;;;;;;6736372;88;20189;-78
2021/06/18 17:06:58;;;;;;;9.00;4.12;;;33.90;77.60;;;;;;6736643;88;20057;-78
2021/06/18 17:16:59;;;;;;;10.23;4.20;;;33.90;77.60;;;;;;6739666;88;20235;-75
2021/06/18 17:26:59;;;;;;;7.15;4.20;;;34.10;77.80;;;;;;6735606;88;20323;-77
2021/06/18 17:37:00;;;;;;;9.52;4.25;;;34.20;77.40;;;;;;6739544;88;20216;-76
2021/06/18 17:47:00;;;;;;;9.55;4.05;;;34.70;75.70;;;;;;6734504;88;20196;-76
2021/06/18 17:57:01;;;;;;;7.70;4.25;;;33.90;76.70;;;;;;6739397;88;20258;-77
2021/06/18 18:07:02;;;;;;;9.05;3.70;;;33.40;79.00;;;;;;6738107;88;20200;-77
2021/06/18 18:17:03;;;;;;;6.43;3.87;;;33.00;79.20;;;;;;6737729;88;20222;-77
2021/06/18 18:27:05;;;;;;;7.40;4.03;;;33.60;78.10;;;;;;6739935;88;20232;-78
2021/06/18 18:37:05;;;;;;;9.60;3.72;;;32.60;78.20;;;;;;6737696;88;20189;-76
2021/06/18 18:47:06;;;;;;;6.82;3.85;;;31.80;78.10;;;;;;6735194;88;20202;-76
2021/06/18 18:57:08;;;;;;;6.10;3.70;;;31.30;78.20;;;;;;6733249;88;20317;-77
2021/06/18 19:07:09;;;;;;;9.55;3.70;;;31.00;78.90;;;;;;6742281;88;20603;-78
2021/06/18 19:17:10;;;;;;;9.57;3.80;;;30.70;79.20;;;;;;6737589;88;20201;-76
2021/06/18 19:27:10;;;;;;;7.05;3.90;;;30.40;79.80;;;;;;6743717;88;20187;-77
2021/06/18 19:37:11;;;;;;;7.25;4.32;;;30.20;81.50;;;;;;6737040;88;20205;-76
2021/06/18 19:47:11;;;;;;;8.10;4.30;;;29.80;82.80;;;;;;6736478;88;20180;-77
2021/06/18 19:57:12;;;;;;;8.13;4.25;;;29.50;83.90;;;;;;6737890;88;20184;-76
2021/06/18 20:07:12;;;;;;;7.68;4.00;;;29.20;84.40;;;;;;6738670;88;20184;-77
2021/06/18 20:17:13;;;;;;;8.52;4.10;;;29.10;84.80;;;;;;6738188;88;20192;-77
2021/06/18 20:27:14;;;;;;;7.97;4.37;;;29.00;85.20;;;;;;6733919;88;20193;-77
2021/06/18 20:37:14;;;;;;;7.82;5.00;;;28.80;86.00;;;;;;6732728;88;20236;-78
2021/06/18 20:47:15;;;;;;;9.60;4.77;;;28.60;87.30;;;;;;6737920;88;20883;-80
2021/06/18 20:57:17;;;;;;;7.37;4.53;;;28.30;88.20;;;;;;6739309;88;20801;-78
2021/06/18 21:07:18;;;;;;;10.38;5.43;;;28.20;88.70;;;;;;6737034;88;20203;-79
2021/06/18 21:17:19;;;;;;;11.70;5.60;;;27.80;90.20;;;;;;6737996;88;20229;-78
2021/06/18 21:27:19;;;;;;;6.40;4.15;;;27.60;90.80;;;;;;6738725;88;20193;-80
2021/06/18 21:37:20;;;;;;;8.47;4.70;;;27.60;90.30;;;;;;6740515;88;20188;-80
2021/06/18 21:47:21;;;;;;;7.28;4.07;;;27.70;90.00;;;;;;6738680;88;20191;-77
2021/06/18 21:57:23;;;;;;;8.32;4.40;;;27.80;90.10;;;;;;6721402;88;20197;-78
2021/06/18 22:07:24;;;;;;;5.60;4.30;;;27.60;90.50;;;;;;6728418;88;20279;-78
2021/06/18 22:27:28;;;;;;;7.37;4.35;;;27.30;91.10;;;;;;6752304;87;20595;-78
2021/06/18 22:37:31;;;;;;;6.32;4.30;;;27.00;91.70;;;;;;6747964;88;20259;-80
2021/06/18 22:47:31;;;;;;;10.90;4.60;;;26.80;92.20;;;;;;6746213;88;20181;-78
2021/06/18 22:57:32;;;;;;;11.12;4.45;;;26.50;92.60;;;;;;6737817;88;20204;-80
2021/06/18 23:07:33;;;;;;;6.70;3.97;;;26.50;92.90;;;;;;6753534;88;20187;-79
2021/06/18 23:17:34;;;;;;;11.38;3.83;;;26.60;92.80;;;;;;6754123;87;20207;-79
2021/06/18 23:27:35;;;;;;;11.37;3.90;;;26.70;92.40;;;;;;6748221;88;20696;-80
2021/06/18 23:37:36;;;;;;;10.38;4.10;;;26.60;92.70;;;;;;6755440;88;20210;-80
2021/06/18 23:47:36;;;;;;;8.55;3.87;;;26.50;92.90;;;;;;6755098;88;20652;-80
2021/06/18 23:57:37;;;;;;;9.48;3.85;;;26.30;93.10;;;;;;6751105;88;20191;-80
